TimeCDT,TemperatureF,Dew PointF,Humidity,Sea Level PressureIn,VisibilityMPH,Wind Direction,Wind SpeedMPH,Gust SpeedMPH,PrecipitationIn,Events,Conditions,WindDirDegrees,DateUTC
12:54 AM,42.1,34.0,73,30.08,10.0,WSW,3.5,-,N/A,,Partly Cloudy,240,2011-10-29 05:54:00
1:54 AM,39.9,34.0,79,30.08,10.0,Calm,Calm,-,N/A,,Clear,0,2011-10-29 06:54:00
2:54 AM,37.4,32.0,81,30.07,10.0,West,3.5,-,N/A,,Clear,280,2011-10-29 07:54:00
3:54 AM,36.0,28.9,76,30.07,10.0,West,3.5,-,N/A,,Clear,270,2011-10-29 08:54:00
4:54 AM,33.8,26.6,75,30.07,10.0,Calm,Calm,-,N/A,,Clear,0,2011-10-29 09:54:00
5:54 AM,33.8,26.6,75,30.07,10.0,SW,4.6,-,N/A,,Clear,220,2011-10-29 10:54:00
6:54 AM,30.9,26.1,82,30.08,10.0,Calm,Calm,-,N/A,,Clear,0,2011-10-29 11:54:00
7:54 AM,32.0,25.0,75,30.09,10.0,West,4.6,-,N/A,,Clear,270,2011-10-29 12:54:00
8:54 AM,37.0,25.0,62,30.13,10.0,WNW,6.9,-,N/A,,Clear,300,2011-10-29 13:54:00
9:54 AM,42.8,26.6,53,30.13,10.0,NNW,4.6,-,N/A,,Clear,330,2011-10-29 14:54:00
10:54 AM,48.9,30.0,48,30.14,10.0,NNW,4.6,-,N/A,,Clear,330,2011-10-29 15:54:00
11:54 AM,52.0,28.0,40,30.15,10.0,WNW,9.2,19.6,N/A,,Clear,300,2011-10-29 16:54:00
12:54 PM,55.0,26.1,33,30.13,10.0,West,6.9,-,N/A,,Clear,280,2011-10-29 17:54:00
1:54 PM,55.0,21.9,28,30.11,10.0,NW,8.1,19.6,N/A,,Clear,320,2011-10-29 18:54:00
2:54 PM,55.9,21.0,26,30.10,10.0,WNW,9.2,-,N/A,,Clear,300,2011-10-29 19:54:00
3:54 PM,55.9,19.9,25,30.09,10.0,WNW,9.2,17.3,N/A,,Clear,300,2011-10-29 20:54:00
4:54 PM,54.0,19.9,26,30.09,10.0,WNW,5.8,-,N/A,,Clear,300,2011-10-29 21:54:00
5:54 PM,51.1,21.9,32,30.10,10.0,Calm,Calm,-,N/A,,Clear,0,2011-10-29 22:54:00
6:54 PM,44.6,24.8,46,30.10,10.0,Calm,Calm,-,N/A,,Clear,0,2011-10-29 23:54:00
7:54 PM,42.1,26.1,53,30.12,6.0,Calm,Calm,-,N/A,,Haze,0,2011-10-30 00:54:00
8:54 PM,41.0,26.1,55,30.12,10.0,Calm,Calm,-,N/A,,Clear,0,2011-10-30 01:54:00
9:54 PM,37.9,28.0,68,30.12,10.0,East,4.6,-,N/A,,Clear,80,2011-10-30 02:54:00
10:54 PM,43.0,25.0,49,30.11,10.0,ESE,5.8,-,N/A,,Clear,120,2011-10-30 03:54:00
11:54 PM,43.0,23.0,45,30.10,10.0,SE,8.1,-,N/A,,Clear,130,2011-10-30 04:54:00